Time;durP1;ratioP1;P1;durP2;ratioP2;P2;SDS_P1;SDS_P2;PMS_P1;PMS_P2;Temp;Humidity;BMP_temperature;BMP_pressure;BME280_temperature;BME280_humidity;BME280_pressure;Samples;Min_cycle;Max_cycle;Signal;HPM_P1;HPM_P2
2022/12/22 03:27:12;;;;;;;8.00;6.50;;;8.70;99.90;;;-141.84;87.97;18653.53;5053242;28;20177;-63
2022/12/22 03:29:40;;;;;;;7.87;6.93;;;8.60;99.90;;;-141.84;87.62;18657.59;5053932;28;20304;-63
2022/12/22 03:32:09;;;;;;;10.00;7.03;;;8.60;99.90;;;-141.84;87.20;18686.03;5053171;28;20233;-64
2022/12/22 03:34:38;;;;;;;7.33;6.63;;;;;;;-141.84;87.03;18677.91;5051945;28;20224;-63
2022/12/22 03:37:06;;;;;;;9.13;7.20;;;8.40;99.90;;;-141.84;87.28;18661.66;5048334;28;20359;-62
2022/12/22 03:39:34;;;;;;;9.10;7.13;;;;;;;-141.84;87.60;18671.81;5053279;28;20217;-63
2022/12/22 03:47:35;;;;;;;8.27;7.13;;;8.50;99.90;;;-141.84;87.74;18663.69;5053452;28;20201;-63
2022/12/22 03:50:04;;;;;;;8.20;7.40;;;;;;;-141.84;87.96;18649.47;5052593;28;20237;-63
2022/12/22 03:52:32;;;;;;;8.40;7.00;;;8.40;99.90;;;-141.84;88.23;18647.44;5052599;28;20240;-64
2022/12/22 03:55:00;;;;;;;9.40;7.57;;;8.40;99.90;;;-141.84;88.52;18647.44;5052891;28;20235;-64
2022/12/22 03:57:28;;;;;;;8.33;7.53;;;8.30;99.90;;;-141.84;88.63;18629.16;5052610;28;20229;-63
2022/12/22 03:59:56;;;;;;;8.33;7.47;;;8.30;99.90;;;-141.84;88.23;18623.06;5052510;28;20549;-63
2022/12/22 04:02:25;;;;;;;7.77;6.67;;;8.40;99.90;;;-141.84;86.39;18684.00;5052629;28;20245;-63
2022/12/22 04:04:54;;;;;;;7.80;7.00;;;8.50;99.90;;;-141.84;86.12;18655.56;5052294;28;20260;-64
2022/12/22 04:07:22;;;;;;;7.40;6.70;;;8.50;99.90;;;-141.84;85.55;18659.63;5052542;28;20232;-64
2022/12/22 04:12:54;;;;;;;8.80;7.77;;;8.60;99.90;;;-141.84;85.90;18667.75;5051948;28;20221;-63
2022/12/22 04:15:24;;;;;;;7.13;6.43;;;8.60;99.90;;;-141.84;85.52;18631.19;5052359;28;20224;-63
2022/12/22 04:17:53;;;;;;;7.37;6.67;;;8.60;99.90;;;-141.84;85.00;18690.09;5052973;28;20221;-63
2022/12/22 04:20:26;;;;;;;6.90;6.30;;;8.60;99.90;;;-141.84;84.84;18710.44;5052361;28;20729;-63
2022/12/22 04:22:56;;;;;;;6.73;6.10;;;8.60;99.90;;;-141.84;84.48;18704.31;5052170;28;20240;-62
2022/12/22 04:25:25;;;;;;;7.63;6.60;;;8.70;99.90;;;-141.84;84.29;18694.16;5051990;28;20232;-63
2022/12/22 04:27:53;;;;;;;7.67;6.80;;;8.60;99.90;;;-141.84;84.88;18686.03;5052163;28;20229;-63
2022/12/22 04:30:21;;;;;;;7.33;6.27;;;8.60;99.90;;;-141.84;84.37;18675.88;5052324;28;20237;-63
2022/12/22 04:32:49;;;;;;;6.03;5.30;;;8.50;99.90;;;-141.84;84.26;18704.31;5052752;28;20205;-63
2022/12/22 04:35:18;;;;;;;6.73;6.13;;;8.60;99.90;;;-141.84;83.84;18702.28;5051676;28;20232;-65
2022/12/22 04:37:47;;;;;;;6.10;5.40;;;8.60;99.90;;;-141.84;84.05;18700.25;5051862;28;20237;-62
2022/12/22 04:40:15;;;;;;;6.47;5.80;;;8.60;99.90;;;-141.84;83.96;18716.53;5051917;28;20662;-63
2022/12/22 04:42:44;;;;;;;7.13;5.90;;;8.60;99.90;;;-141.84;84.06;18675.88;5051812;28;20288;-63
2022/12/22 04:45:12;;;;;;;7.00;6.30;;;8.80;99.90;;;-141.84;84.71;18706.38;5052125;28;20205;-62
2022/12/22 04:47:40;;;;;;;6.60;5.90;;;8.50;99.90;;;-141.84;85.16;18702.28;5052319;28;20205;-63
2022/12/22 04:50:09;;;;;;;7.03;5.93;;;8.50;99.90;;;-141.84;85.25;18700.25;5051623;28;20228;-64
2022/12/22 04:52:38;;;;;;;5.67;5.10;;;8.50;99.90;;;-141.84;83.96;18722.63;5051558;28;20233;-63
2022/12/22 04:55:09;;;;;;;6.40;5.30;;;8.60;99.90;;;-141.84;83.85;18696.19;5051950;28;20241;-64
2022/12/22 04:57:37;;;;;;;6.07;5.43;;;8.60;99.90;;;-141.84;83.67;18663.69;5051572;28;20258;-64
2022/12/22 05:00:10;;;;;;;5.60;5.10;;;8.60;99.90;;;-141.84;83.41;18694.16;5051922;28;20185;-62
2022/12/22 05:02:38;;;;;;;5.87;5.27;;;8.60;99.90;;;-141.84;83.22;18742.94;5052531;28;20201;-63
2022/12/22 05:05:08;;;;;;;5.07;4.63;;;8.60;99.90;;;-141.84;83.36;18696.19;5051371;28;20278;-63
2022/12/22 05:07:37;;;;;;;6.40;5.10;;;8.60;99.90;;;-141.84;84.20;18692.13;5051434;28;20739;-63
2022/12/22 05:10:09;;;;;;;5.03;4.53;;;8.60;99.90;;;-141.84;85.04;18698.22;5051280;28;20236;-63
2022/12/22 05:12:55;;;;;;;5.40;4.90;;;8.50;99.90;;;-141.84;85.62;18702.28;5051531;28;20228;-64
2022/12/22 05:15:27;;;;;;;6.20;5.60;;;8.50;99.90;;;-141.84;86.36;18675.88;5051060;28;20739;-63
2022/12/22 05:17:56;;;;;;;5.30;4.80;;;8.40;99.90;;;-141.84;86.62;18651.50;5051402;28;20205;-63
2022/12/22 05:20:25;;;;;;;5.20;4.70;;;8.40;99.90;;;-141.84;86.81;18665.72;5052055;28;20212;-63
2022/12/22 05:22:55;;;;;;;5.37;4.70;;;8.40;99.90;;;-141.84;87.17;18643.38;5051418;28;20252;-65
2022/12/22 05:25:24;;;;;;;5.97;5.13;;;8.40;99.90;;;-141.84;87.37;18653.53;5051359;28;20241;-64
2022/12/22 05:27:57;;;;;;;4.70;4.30;;;8.30;99.90;;;-141.84;87.39;18653.53;5051008;28;20579;-63
2022/12/22 05:30:25;;;;;;;5.33;4.70;;;8.30;99.90;;;-141.84;87.57;18653.53;5051122;28;20283;-64
2022/12/22 05:32:54;;;;;;;6.40;4.60;;;8.30;99.90;;;-141.84;87.37;18661.66;5051407;28;20201;-64
2022/12/22 05:35:22;;;;;;;5.00;4.50;;;8.30;99.90;;;-141.84;87.65;18665.72;5051217;28;20216;-64
2022/12/22 05:37:50;;;;;;;5.10;4.60;;;8.30;99.90;;;-141.84;87.79;18631.19;5051151;28;20245;-64
2022/12/22 05:40:18;;;;;;;5.90;5.00;;;8.30;99.90;;;-141.84;87.84;18629.16;5051097;28;20225;-63
2022/12/22 05:42:48;;;;;;;5.40;4.43;;;8.30;99.90;;;-141.84;86.99;18639.31;5050920;28;20253;-64
2022/12/22 05:45:19;;;;;;;5.77;5.17;;;8.30;99.90;;;-141.84;86.89;18647.44;5051057;28;20232;-64
2022/12/22 05:47:50;;;;;;;5.00;4.50;;;8.30;99.90;;;-141.84;87.33;18675.88;5051668;28;20182;-63
2022/12/22 05:50:23;;;;;;;5.50;4.90;;;8.30;99.90;;;-141.84;87.30;18645.41;5051186;28;20291;-64
2022/12/22 05:52:51;;;;;;;5.27;4.77;;;8.30;99.90;;;-141.84;87.39;18637.28;5050827;28;20606;-64
2022/12/22 05:55:20;;;;;;;5.13;4.63;;;8.30;99.90;;;-141.84;87.16;18667.75;5050904;28;20260;-62
2022/12/22 05:57:49;;;;;;;5.17;4.60;;;8.30;99.90;;;-141.84;87.13;18639.31;5050610;28;20232;-63
2022/12/22 06:00:19;;;;;;;5.73;5.13;;;8.30;99.90;;;-141.84;87.23;18675.88;5050835;28;20224;-62
2022/12/22 06:02:47;;;;;;;5.70;5.20;;;8.30;99.90;;;-141.84;86.63;18663.69;5051430;28;20201;-63
2022/12/22 06:05:15;;;;;;;5.83;5.30;;;8.30;99.90;;;-141.84;86.59;18665.72;5050097;28;20257;-63
2022/12/22 06:07:43;;;;;;;6.73;5.93;;;8.30;99.90;;;-141.84;86.80;18673.84;5050702;28;20221;-63
2022/12/22 06:10:13;;;;;;;5.60;4.90;;;8.30;99.90;;;-141.84;86.41;18661.66;5050589;28;20233;-63
2022/12/22 06:12:43;;;;;;;7.00;5.37;;;8.40;99.90;;;-141.84;86.43;18651.50;5050544;28;20279;-64
2022/12/22 06:15:15;;;;;;;5.60;5.10;;;8.40;99.90;;;-141.84;86.41;18663.69;5050382;28;20197;-64
2022/12/22 06:17:43;;;;;;;5.50;5.00;;;8.40;99.90;;;-141.84;86.88;18645.41;5050921;28;20214;-64
2022/12/22 06:20:14;;;;;;;6.90;5.03;;;8.40;99.90;;;-141.84;87.37;18659.63;5050344;28;20229;-64
2022/12/22 06:22:42;;;;;;;5.30;4.80;;;8.40;99.90;;;-141.84;87.40;18627.13;5050817;28;20225;-65
2022/12/22 06:25:11;;;;;;;5.30;4.80;;;8.30;99.90;;;-141.84;86.75;18663.69;5051682;28;20267;-63
2022/12/22 06:27:45;;;;;;;6.53;5.50;;;8.40;99.90;;;-141.84;86.23;18643.38;5054729;28;20230;-62
2022/12/22 06:30:16;;;;;;;5.63;5.10;;;8.40;99.90;;;-141.84;86.17;18645.41;5054374;28;20306;-62
2022/12/22 06:32:44;;;;;;;6.17;5.57;;;8.40;99.90;;;-141.84;86.07;18659.63;5054971;28;20200;-63
2022/12/22 06:35:12;;;;;;;5.90;5.30;;;8.40;99.90;;;-141.84;86.15;18667.75;5053752;28;20220;-63
2022/12/22 06:37:41;;;;;;;5.77;5.20;;;8.40;99.90;;;-141.84;84.09;18684.00;5054396;28;20570;-63
2022/12/22 06:40:10;;;;;;;5.50;4.80;;;8.50;99.90;;;-141.84;84.16;18692.13;5054549;28;20225;-63
2022/12/22 06:45:35;;;;;;;8.63;5.20;;;8.50;99.90;;;-141.84;84.58;18688.06;5054103;28;20689;-63
2022/12/22 06:48:03;;;;;;;5.57;4.97;;;8.50;99.90;;;-141.84;84.71;18692.13;5054444;28;20178;-63
2022/12/22 06:50:31;;;;;;;5.57;4.43;;;8.50;99.90;;;-141.84;83.15;18706.38;5054336;28;20212;-65
2022/12/22 06:53:00;;;;;;;5.00;4.50;;;8.60;99.90;;;-141.84;83.30;18710.44;5034045;28;20245;-64
2022/12/22 06:55:28;;;;;;;5.10;4.60;;;8.60;99.90;;;-141.84;82.97;18694.16;5034092;28;20259;-64
2022/12/22 06:57:56;;;;;;;5.77;4.47;;;8.60;99.90;;;-141.84;83.36;18686.03;5033526;28;20233;-65
2022/12/22 07:00:25;;;;;;;4.93;4.30;;;8.60;99.90;;;-141.84;83.26;18708.41;5033461;28;20912;-64
2022/12/22 07:02:54;;;;;;;4.17;3.77;;;8.70;99.90;;;-141.84;82.08;18712.47;5034427;28;20261;-64
2022/12/22 07:05:24;;;;;;;5.00;4.50;;;8.70;99.90;;;-141.84;82.76;18706.38;5033643;28;20221;-65
2022/12/22 07:07:52;;;;;;;4.47;4.07;;;8.70;99.90;;;-141.84;83.31;18726.69;5033644;28;20226;-64
2022/12/22 07:10:56;;;;;;;5.13;4.17;;;8.70;99.90;;;-141.84;82.24;18726.69;5033426;28;20582;-64
2022/12/22 07:13:19;;;;;;;5.67;4.13;;;8.70;99.90;;;-141.84;82.23;18726.69;5033112;28;20229;-63
2022/12/22 07:15:48;;;;;;;5.47;4.20;;;8.80;99.90;;;-141.84;82.14;18708.41;5013710;28;20245;-63
2022/12/22 07:18:29;;;;;;;4.53;4.13;;;8.80;99.90;;;-141.84;82.68;18720.59;5013117;28;20231;-63
2022/12/22 07:20:57;;;;;;;6.80;4.40;;;8.80;99.90;;;-141.84;82.83;18716.53;5013599;28;20250;-63
2022/12/22 07:23:26;;;;;;;4.03;3.63;;;;;;;-141.84;82.80;18747.00;5014274;28;20205;-64
2022/12/22 07:25:54;;;;;;;4.23;3.83;;;8.70;99.90;;;-141.84;83.03;18724.66;5013289;28;20238;-64
2022/12/22 07:28:23;;;;;;;5.13;4.23;;;8.80;99.90;;;-141.84;83.58;18702.28;5013042;28;20231;-64
2022/12/22 07:30:53;;;;;;;4.80;4.30;;;8.80;99.90;;;-141.84;83.25;18718.56;5013215;28;20703;-64
2022/12/22 07:33:21;;;;;;;4.10;3.67;;;8.80;99.90;;;-141.84;83.44;18726.69;5013188;28;20754;-65
2022/12/22 07:36:02;;;;;;;3.90;3.60;;;8.80;99.90;;;-141.84;83.13;18702.28;5025919;28;20210;-58
2022/12/22 07:38:37;;;;;;;5.83;4.27;;;9.00;99.90;;;-141.84;83.24;18696.19;5031388;28;20238;-54
2022/12/22 07:42:43;;;;;;;3.70;3.40;;;8.90;99.90;;;-141.84;84.19;18710.44;5032836;28;20681;-50
2022/12/22 07:43:57;;;;;;;3.83;3.40;;;8.80;99.90;;;-141.84;84.58;18710.44;5032843;28;20609;-54
2022/12/22 07:46:28;;;;;;;4.90;3.87;;;8.80;99.90;;;-141.84;84.34;18704.31;5032843;28;20229;-54
2022/12/22 07:51:44;;;;;;;4.47;3.70;;;8.80;99.90;;;-141.84;86.06;18684.00;5041936;28;20225;-57
2022/12/22 07:54:15;;;;;;;4.30;3.90;;;8.70;99.90;;;-141.84;85.69;18692.13;5052616;28;20212;-58
2022/12/22 07:56:45;;;;;;;4.17;3.77;;;;;;;-141.84;85.74;18724.66;5053099;28;20186;-56
2022/12/22 07:59:15;;;;;;;4.30;3.90;;;;;;;-141.84;86.14;18684.00;5052038;28;20225;-58
2022/12/22 08:01:45;;;;;;;4.23;3.77;;;;;;;-141.84;86.47;18657.59;5051985;28;20214;-58
2022/12/22 08:04:15;;;;;;;4.23;3.73;;;8.20;99.90;;;-141.84;86.62;18671.81;5052707;28;20228;-56
2022/12/22 08:06:45;;;;;;;4.00;3.60;;;8.80;99.90;;;-141.84;87.08;18647.44;5047010;28;20221;-56
2022/12/22 08:09:20;;;;;;;4.13;3.73;;;;;;;-141.84;87.56;18667.75;5052018;28;20208;-54
2022/12/22 08:11:49;;;;;;;5.23;4.17;;;;;;;-141.84;87.94;18700.25;5051871;28;20271;-55
2022/12/22 08:14:17;;;;;;;5.70;3.80;;;;;;;-141.84;87.82;18663.69;5051989;28;20320;-55
2022/12/22 08:16:47;;;;;;;4.37;3.97;;;;;;;-141.84;88.31;18669.78;5052017;28;20248;-52
2022/12/22 08:19:16;;;;;;;4.33;3.67;;;;;;;-141.84;88.30;18653.53;5051810;28;20712;-55
2022/12/22 08:21:47;;;;;;;5.53;3.90;;;;;;;-141.84;88.24;18679.94;5051616;28;20225;-62
2022/12/22 08:24:21;;;;;;;5.53;4.03;;;;;;;-141.84;88.61;18625.09;5051695;28;20704;-61
2022/12/22 08:26:53;;;;;;;5.10;4.43;;;8.70;99.90;;;-141.84;88.11;18651.50;5052301;28;20202;-60
2022/12/22 08:29:27;;;;;;;4.47;4.03;;;8.90;99.90;;;-141.84;88.41;18649.47;5052139;28;20553;-60
2022/12/22 08:31:56;;;;;;;6.20;3.70;;;;;;;-141.84;88.75;18661.66;5051275;28;20240;-58
2022/12/22 08:34:26;;;;;;;4.53;4.13;;;;;;;-141.84;89.51;18631.19;5051816;28;20233;-58
2022/12/22 08:36:59;;;;;;;4.53;4.13;;;;;;;-141.84;89.54;18655.56;5051229;28;20589;-57
2022/12/22 08:39:32;;;;;;;5.37;4.13;;;;;;;-141.84;88.82;18661.66;5051535;28;20735;-55
2022/12/22 08:42:03;;;;;;;6.17;4.33;;;;;;;-141.84;88.97;18655.56;5051471;28;20190;-58
2022/12/22 08:44:34;;;;;;;4.67;4.13;;;;;;;-141.84;88.75;18675.88;5051993;28;20186;-58
2022/12/22 08:47:02;;;;;;;4.67;4.07;;;;;;;-141.84;89.24;18649.47;5051075;28;20229;-56
2022/12/22 08:49:32;;;;;;;4.50;4.10;;;8.70;99.90;;;-141.84;90.06;18653.53;5051632;28;20225;-58
2022/12/22 08:52:02;;;;;;;4.67;3.90;;;8.70;99.90;;;-141.84;89.65;18631.19;5051228;28;20233;-56
2022/12/22 08:54:50;;;;;;;5.93;3.70;;;8.80;99.90;;;-141.84;90.18;18639.31;5047707;28;20229;-59
2022/12/22 08:57:18;;;;;;;4.47;3.60;;;8.70;99.90;;;-141.84;91.04;18635.25;5046740;28;20351;-61
2022/12/22 08:59:47;;;;;;;5.47;4.00;;;8.70;99.90;;;-141.84;91.09;18635.25;5051809;28;20229;-62
2022/12/22 09:02:18;;;;;;;6.27;4.33;;;8.80;99.90;;;-141.84;91.33;18631.19;5043303;28;20221;-58
2022/12/22 09:04:47;;;;;;;5.90;4.30;;;8.80;99.90;;;-141.84;91.34;18610.88;5051401;28;20245;-60
2022/12/22 09:07:17;;;;;;;4.33;3.93;;;8.80;99.90;;;-141.84;91.43;18623.06;5050676;28;20236;-61
2022/12/22 09:09:45;;;;;;;5.67;4.37;;;8.80;99.90;;;-141.84;91.47;18643.38;5051303;28;20220;-56
2022/12/22 09:12:14;;;;;;;6.00;3.53;;;8.80;99.90;;;-141.84;91.08;18639.31;5050870;28;20630;-57
2022/12/22 09:14:42;;;;;;;3.80;3.50;;;8.90;99.90;;;-141.84;91.31;18629.16;5051371;28;20720;-57
2022/12/22 09:17:10;;;;;;;6.63;4.00;;;8.90;99.90;;;-141.84;92.10;18610.88;5048410;28;20229;-59
2022/12/22 09:19:39;;;;;;;5.67;3.90;;;;;;;-141.84;91.44;18635.25;5049150;28;20228;-55
2022/12/22 09:22:08;;;;;;;4.60;3.40;;;8.90;99.90;;;-141.84;91.96;18627.13;5034270;28;20217;-56
2022/12/22 09:24:37;;;;;;;4.50;3.53;;;8.90;99.90;;;-141.84;92.26;18627.13;5057765;28;20217;-55
2022/12/22 09:27:07;;;;;;;7.70;3.73;;;;;;;-141.84;92.42;18625.09;5050610;28;20217;-56
2022/12/22 09:29:36;;;;;;;3.90;3.50;;;8.50;99.90;;;-141.84;93.06;18608.84;5051584;28;20196;-56
2022/12/22 09:32:06;;;;;;;5.37;4.20;;;;;;;-141.84;93.17;18592.59;5044105;28;20213;-56
2022/12/22 09:34:36;;;;;;;4.13;3.57;;;;;;;-141.84;93.15;18623.06;5050630;28;20243;-55
2022/12/22 09:37:05;;;;;;;5.43;3.80;;;9.00;99.90;;;-141.84;92.60;18582.44;5050383;28;20228;-58
2022/12/22 09:39:33;;;;;;;5.13;3.90;;;9.10;99.90;;;-141.84;92.64;18610.88;5050331;28;20225;-57
2022/12/22 09:42:03;;;;;;;5.43;4.13;;;9.00;99.90;;;-141.84;92.96;18621.03;5050703;28;20233;-59
2022/12/22 09:44:34;;;;;;;4.70;3.83;;;9.10;99.90;;;-141.84;92.24;18610.88;5050932;28;20204;-60
2022/12/22 09:47:16;;;;;;;3.97;3.40;;;9.10;99.90;;;-141.84;91.82;18641.34;5050726;28;20221;-59
2022/12/22 09:49:45;;;;;;;5.93;4.00;;;9.10;99.90;;;-141.84;91.61;18625.09;5050377;28;20742;-60
2022/12/22 09:52:30;;;;;;;5.07;3.53;;;9.20;99.90;;;-141.84;91.87;18655.56;5050145;28;20231;-57
2022/12/22 09:54:59;;;;;;;4.60;3.87;;;9.20;99.90;;;-141.84;92.16;18614.94;5047987;28;20221;-58
2022/12/22 09:57:32;;;;;;;4.03;3.60;;;9.20;99.90;;;-141.84;92.31;18619.00;5050011;28;20221;-58
2022/12/22 10:00:13;;;;;;;3.90;3.50;;;9.20;99.90;;;-141.84;91.53;18641.34;5050544;28;20235;-58
2022/12/22 10:02:56;;;;;;;4.77;3.80;;;9.30;99.90;;;-141.84;90.83;18661.66;5048406;28;20613;-59
2022/12/22 10:05:38;;;;;;;5.37;3.47;;;9.40;99.90;;;-141.84;89.65;18663.69;5050628;28;20225;-57
2022/12/22 10:08:12;;;;;;;4.53;3.67;;;9.40;99.90;;;-141.84;89.86;18651.50;5054153;28;20225;-59
2022/12/22 10:10:40;;;;;;;3.90;3.50;;;9.40;99.90;;;-141.84;89.35;18651.50;5050078;28;20228;-56
2022/12/22 10:13:18;;;;;;;4.10;3.57;;;9.50;99.90;;;-141.84;89.24;18671.81;5049809;28;20247;-54
2022/12/22 10:15:47;;;;;;;3.63;3.33;;;9.50;99.90;;;-141.84;88.06;18704.31;5050040;28;20229;-52
2022/12/22 10:18:20;;;;;;;3.67;3.37;;;9.70;99.90;;;-141.84;88.06;18690.09;5047108;28;20217;-58
2022/12/22 10:21:09;;;;;;;4.17;3.77;;;9.70;99.90;;;-141.84;88.70;18665.72;5050097;28;20221;-55
2022/12/22 10:23:41;;;;;;;4.53;3.50;;;9.70;99.90;;;-141.84;87.72;18686.03;5050358;28;20210;-57
2022/12/22 10:26:13;;;;;;;3.63;3.07;;;9.80;99.90;;;-141.84;88.28;18688.06;5049767;28;20596;-55
2022/12/22 10:29:03;;;;;;;3.77;3.00;;;9.70;99.90;;;-141.84;88.17;18690.09;5049555;28;20900;-59
2022/12/22 10:31:34;;;;;;;3.67;2.90;;;9.70;99.90;;;-141.84;88.21;18686.03;5049727;28;20236;-58
2022/12/22 10:34:13;;;;;;;2.90;2.70;;;9.70;99.90;;;-141.84;88.04;18671.81;5049933;28;20303;-58
2022/12/22 10:36:47;;;;;;;5.33;3.00;;;9.80;99.90;;;-141.84;88.26;18677.91;5049819;28;20224;-57
2022/12/22 10:39:22;;;;;;;3.43;2.80;;;9.80;99.90;;;-141.84;87.98;18665.72;5049663;28;20681;-56
2022/12/22 10:41:55;;;;;;;4.07;2.27;;;9.80;99.90;;;-141.84;87.61;18696.19;5048606;28;20201;-56
2022/12/22 10:44:30;;;;;;;2.73;2.13;;;9.80;99.90;;;-141.84;87.18;18704.31;5045621;28;20221;-54
2022/12/22 10:47:00;;;;;;;2.87;2.13;;;9.90;99.90;;;-141.84;87.50;18714.50;5043887;28;20231;-54
2022/12/22 10:49:35;;;;;;;3.37;2.30;;;9.90;99.90;;;-141.84;86.94;18706.38;5050926;28;20228;-57
2022/12/22 10:52:14;;;;;;;1.73;1.63;;;9.90;99.90;;;-141.84;87.08;18690.09;5047695;28;20225;-57
2022/12/22 10:54:44;;;;;;;2.10;1.60;;;10.00;99.90;;;-141.84;87.35;18706.38;5048103;28;20228;-55
2022/12/22 10:57:30;;;;;;;1.70;1.40;;;10.00;99.90;;;-141.84;86.69;18712.47;5049625;28;20198;-57
2022/12/22 11:00:02;;;;;;;1.27;1.17;;;10.10;99.90;;;-141.84;86.84;18696.19;5045149;28;20210;-55
2022/12/22 11:02:36;;;;;;;1.53;1.10;;;10.10;99.90;;;-141.84;86.79;18722.63;5046568;28;20198;-61
2022/12/22 11:05:08;;;;;;;1.10;1.00;;;10.20;99.90;;;-141.84;86.29;18763.25;5035808;28;20220;-60
2022/12/22 11:07:40;;;;;;;1.23;1.07;;;10.30;99.90;;;-141.84;86.00;18765.28;5041046;28;20225;-58
2022/12/22 11:10:18;;;;;;;1.93;0.90;;;10.30;99.90;;;-141.84;85.61;18775.44;5049281;28;20225;-61
2022/12/22 11:13:22;;;;;;;1.00;0.90;;;10.40;99.90;;;-141.84;85.29;18724.66;5050777;28;20221;-58
2022/12/22 11:16:02;;;;;;;1.67;0.97;;;10.50;99.90;;;-141.84;84.30;18814.03;5052719;28;20249;-55
2022/12/22 11:19:01;;;;;;;1.43;1.20;;;10.60;99.90;;;-141.84;84.37;18749.03;5050175;28;20751;-57
2022/12/22 11:21:45;;;;;;;1.20;1.07;;;10.60;99.90;;;-141.84;83.63;18797.78;5047440;28;20228;-56
2022/12/22 11:24:34;;;;;;;1.43;1.10;;;10.70;99.90;;;-141.84;83.23;18812.00;5055589;28;20198;-58
2022/12/22 11:27:23;;;;;;;0.63;0.63;;;10.70;99.90;;;-141.84;82.85;18789.66;5049147;28;20202;-58
2022/12/22 11:30:08;;;;;;;1.17;0.83;;;10.80;99.90;;;-141.84;82.37;18846.56;5052603;28;20205;-57
2022/12/22 11:33:07;;;;;;;1.00;0.90;;;10.70;99.90;;;-141.84;81.80;18828.28;5051582;28;20245;-57
2022/12/22 11:35:51;;;;;;;2.03;1.07;;;10.80;99.90;;;-141.84;82.60;18822.19;5051925;28;20583;-56
2022/12/22 11:38:44;;;;;;;1.27;1.10;;;10.80;99.90;;;-141.84;82.69;18799.81;5053139;28;20216;-59
2022/12/22 11:41:41;;;;;;;1.40;1.10;;;10.80;99.90;;;-141.84;82.44;18828.28;5052520;28;20225;-57
2022/12/22 11:44:45;;;;;;;2.03;1.20;;;10.90;99.90;;;-141.84;81.22;18858.75;5052260;28;20225;-55
2022/12/22 11:47:28;;;;;;;2.90;1.10;;;10.90;99.90;;;-141.84;80.81;18870.94;5052340;28;20251;-57
2022/12/22 11:50:27;;;;;;;1.03;1.00;;;11.10;99.90;;;-141.84;80.70;18862.81;5053140;28;20221;-56
2022/12/22 11:53:53;;;;;;;3.00;1.00;;;11.10;99.90;;;-141.84;80.74;18856.72;5060293;28;20279;-56
2022/12/22 11:56:25;;;;;;;1.43;0.93;;;11.00;99.90;;;-141.84;80.88;18872.97;5050893;28;20212;-58
2022/12/22 11:59:23;;;;;;;1.57;0.80;;;11.10;99.90;;;-141.84;81.54;18858.75;5051647;28;20577;-58
2022/12/22 12:02:34;;;;;;;1.45;0.90;;;11.10;99.90;;;-141.84;80.50;18877.03;5052603;28;20592;-57
2022/12/22 12:05:38;;;;;;;1.10;1.00;;;11.10;99.90;;;-141.84;80.48;18875.00;5051815;28;20689;-56
2022/12/22 12:08:22;;;;;;;0.97;0.90;;;11.10;99.90;;;-141.84;80.33;18850.63;5052557;28;20225;-57
2022/12/22 12:10:57;;;;;;;1.10;0.70;;;11.10;99.90;;;-141.84;79.37;18933.94;5052417;28;20221;-57
2022/12/22 12:13:38;;;;;;;2.00;0.97;;;11.20;99.90;;;-141.84;80.01;18889.22;5051916;28;20232;-57
2022/12/22 12:16:20;;;;;;;1.07;0.97;;;11.10;99.90;;;-141.84;80.76;18868.91;5051560;28;20240;-55
2022/12/22 12:19:26;;;;;;;0.60;0.60;;;11.00;99.90;;;-141.84;80.23;18895.31;5051752;28;20233;-58
2022/12/22 12:22:00;;;;;;;0.73;0.70;;;11.00;99.90;;;-141.84;79.82;18877.03;5068904;28;20247;-57
2022/12/22 12:24:54;;;;;;;0.90;0.83;;;11.10;99.90;;;-141.84;80.00;18899.38;5071512;28;20224;-55
2022/12/22 12:27:47;;;;;;;0.90;0.80;;;11.10;99.90;;;-141.84;81.20;18870.94;5071371;28;20266;-56
2022/12/22 12:30:18;;;;;;;0.70;0.70;;;11.00;99.90;;;-141.84;81.46;18879.06;5071737;28;20231;-54
2022/12/22 12:33:15;;;;;;;1.23;0.70;;;10.70;99.90;;;-141.84;82.23;18846.56;5071553;28;20236;-56
2022/12/22 12:35:57;;;;;;;1.17;0.90;;;10.80;99.90;;;-141.84;83.06;18834.38;5056594;28;20568;-57
2022/12/22 12:38:42;;;;;;;0.80;0.80;;;10.80;99.90;;;-141.84;84.13;18783.56;5052189;28;20677;-58
2022/12/22 12:41:40;;;;;;;1.07;0.93;;;;;;;-141.84;85.77;18801.84;5031169;28;20245;-56
2022/12/22 12:44:13;;;;;;;1.43;1.33;;;10.60;99.90;;;-141.84;86.46;18805.91;5031501;28;20229;-55
2022/12/22 12:47:22;;;;;;;0.80;0.80;;;10.60;99.90;;;-141.84;87.35;18755.13;5035608;28;20225;-56
2022/12/22 12:50:39;;;;;;;0.73;0.70;;;10.30;99.90;;;-141.84;88.52;18740.91;5051185;28;20236;-58
2022/12/22 12:53:09;;;;;;;1.13;1.00;;;10.40;99.90;;;-141.84;88.97;18742.94;5041371;28;20229;-57
2022/12/22 12:56:08;;;;;;;2.03;1.40;;;10.30;99.90;;;-141.84;89.77;18736.84;5050686;28;20316;-55
2022/12/22 12:58:56;;;;;;;1.20;1.10;;;10.30;99.90;;;-141.84;90.45;18716.53;5050756;28;20261;-56
2022/12/22 13:01:57;;;;;;;2.20;1.40;;;10.20;99.90;;;-141.84;90.98;18677.91;5050072;28;20611;-55
2022/12/22 13:05:35;;;;;;;1.20;1.10;;;10.20;99.90;;;-141.84;91.57;18706.38;5048369;28;20216;-56
2022/12/22 13:08:20;;;;;;;1.03;1.03;;;10.20;99.90;;;-141.84;91.52;18681.97;5050009;28;20233;-57
2022/12/22 13:11:35;;;;;;;1.20;1.10;;;10.20;99.90;;;-141.84;92.15;18677.91;5049639;28;20884;-56
2022/12/22 13:14:58;;;;;;;1.40;1.30;;;10.30;99.90;;;-141.84;93.24;18641.34;5049428;28;20263;-56
2022/12/22 13:17:34;;;;;;;2.20;1.63;;;10.20;99.90;;;-141.84;93.91;18647.44;5049539;28;20229;-57
2022/12/22 13:20:03;;;;;;;3.10;2.27;;;10.20;99.90;;;-141.84;94.33;18647.44;5050195;28;20286;-58
2022/12/22 13:22:33;;;;;;;3.00;2.20;;;10.10;99.90;;;-141.84;94.44;18661.66;5049322;28;20259;-60
2022/12/22 13:25:03;;;;;;;1.97;1.80;;;10.10;99.90;;;-141.84;94.25;18702.28;5050147;28;20591;-60
2022/12/22 13:27:36;;;;;;;2.80;2.60;;;;;;;-141.84;94.40;18655.56;5049681;28;20225;-60
2022/12/22 13:30:12;;;;;;;2.50;2.30;;;;;;;-141.84;94.69;18651.50;5048947;28;20993;-57
2022/12/22 13:32:42;;;;;;;2.30;2.10;;;;;;;-141.84;94.67;18651.50;5049390;28;20197;-58
2022/12/22 13:35:18;;;;;;;3.20;2.10;;;;;;;-141.84;94.97;18619.00;5048942;28;20225;-57
2022/12/22 13:37:58;;;;;;;1.93;1.80;;;9.70;99.90;;;-141.84;95.15;18619.00;5049039;28;20590;-63
2022/12/22 13:40:30;;;;;;;2.13;1.57;;;10.00;99.90;;;-141.84;95.44;18594.63;5048694;28;20260;-63
2022/12/22 13:43:10;;;;;;;1.60;1.50;;;;;;;-141.84;95.72;18606.81;5049547;28;20701;-63
2022/12/22 13:45:43;;;;;;;2.83;1.60;;;9.90;99.90;;;-141.84;95.81;18621.03;5049779;28;20221;-63
2022/12/22 13:48:18;;;;;;;1.90;1.60;;;10.00;99.90;;;-141.84;95.43;18598.69;5049366;28;20200;-63
2022/12/22 13:50:51;;;;;;;3.87;3.57;;;10.00;99.90;;;-141.84;95.50;18623.06;5049163;28;20201;-62
2022/12/22 13:53:31;;;;;;;11.07;7.90;;;9.90;99.90;;;-141.84;95.36;18602.75;5049021;28;20216;-62
2022/12/22 13:56:25;;;;;;;4.20;3.10;;;9.90;99.90;;;-141.84;95.16;18623.06;5049944;28;20255;-63
2022/12/22 13:59:00;;;;;;;2.33;1.80;;;9.90;99.90;;;-141.84;95.03;18637.28;5049000;28;20328;-63
2022/12/22 14:01:29;;;;;;;3.47;1.93;;;9.90;99.90;;;-141.84;94.97;18590.56;5049542;28;20240;-63
2022/12/22 14:04:02;;;;;;;2.00;1.87;;;9.90;99.90;;;-141.84;95.31;18594.63;5049361;28;20275;-62
2022/12/22 14:06:35;;;;;;;2.20;2.00;;;9.90;99.90;;;-141.84;95.81;18586.50;5048685;28;20221;-62
2022/12/22 14:09:15;;;;;;;2.50;2.10;;;9.80;99.90;;;-141.84;95.68;18600.72;5048541;28;20209;-63
2022/12/22 14:11:47;;;;;;;2.53;2.33;;;9.90;99.90;;;-141.84;95.54;18578.38;5049687;28;20201;-62
2022/12/22 14:14:25;;;;;;;2.20;2.00;;;9.90;99.90;;;-141.84;95.13;18590.56;5049751;28;20285;-63
2022/12/22 14:16:57;;;;;;;2.37;2.00;;;9.90;99.90;;;-141.84;95.35;18614.94;5036236;28;20224;-64
2022/12/22 14:19:30;;;;;;;3.17;2.47;;;9.90;99.90;;;-141.84;95.58;18586.50;5047292;28;20221;-64
2022/12/22 14:22:07;;;;;;;1.80;1.60;;;9.80;99.90;;;-141.84;95.49;18594.63;5047859;28;20611;-63
2022/12/22 14:24:42;;;;;;;1.70;1.57;;;9.90;99.90;;;-141.84;94.95;18598.69;5049567;28;20734;-62
2022/12/22 14:27:21;;;;;;;1.40;1.30;;;10.80;99.90;;;-141.84;94.63;18588.53;5049397;28;20618;-62
2022/12/22 14:29:51;;;;;;;3.23;1.50;;;9.90;99.90;;;-141.84;94.78;18588.53;5051175;28;20196;-62
2022/12/22 14:32:41;;;;;;;1.60;1.30;;;9.90;99.90;;;-141.84;95.20;18574.28;5050386;28;20229;-63